Weather at The Landings Airport

Public forecast

Using degrees Fahrenheit for public forecast. Weather courtesy of forecast.io.

Closest aviation weather report (METAR) to The Landings Airport

Closest report is Granbury Regional Airport, 9.9 nm (18.4 km) WNW. Retrieved 2020/10/30 13:35 UTC (0 seconds ago):

KGDJ 301335Z AUTO 00000KT 10SM VCTS CLR 03/01 A3033 RMK AO2 T00250014

Closest aviation forecast (TAF) to The Landings Airport

Forecast is more than 12 hours old.

Closest forecast is NAS Fort Worth JRB/Carswell Field, 26.3 nm (48.7 km) NNE. Retrieved 2014/12/04 15:30 UTC (6 years ago):

TAF KNFW 041500Z 0415/0515 16009KT 9999 8000 BR BKN015 OVC060 QNH3004INS TEMPO 0415/0420 3200 -DZ BR BKN009 OVC020 FM050000 16009KT 9999 BKN010 OVC040 QNH3010INS FM051200 17012KT 9999 BKN040 OVC100 QNH3012INS T24/0423Z T13/0512Z FN20046